Time;durP1;ratioP1;P1;durP2;ratioP2;P2;SDS_P1;SDS_P2;PMS_P1;PMS_P2;Temp;Humidity;BMP_temperature;BMP_pressure;BME280_temperature;BME280_humidity;BME280_pressure;Samples;Min_cycle;Max_cycle;Signal;HPM_P1;HPM_P2
2021/01/20 00:00:09;;;;;;;143.10;78.45;;;;;;;2.45;73.05;102054.44;5029882;28;20632;-69
2021/01/20 00:02:37;;;;;;;145.57;80.30;;;;;;;2.41;73.19;102051.03;5033627;28;20049;-69
2021/01/20 00:05:05;;;;;;;140.77;77.93;;;;;;;2.39;73.26;102036.34;5033439;28;20053;-69
2021/01/20 00:07:31;;;;;;;134.85;74.85;;;;;;;2.38;73.20;102037.22;5032970;28;20041;-69
2021/01/20 00:09:58;;;;;;;142.75;75.88;;;;;;;2.39;73.21;102038.94;5033199;28;20489;-69
2021/01/20 00:12:24;;;;;;;147.82;75.80;;;;;;;2.38;73.14;102039.78;5033540;28;20049;-69
2021/01/20 00:14:50;;;;;;;145.40;76.18;;;;;;;2.38;73.12;102027.69;5032789;28;20452;-69
2021/01/20 00:17:17;;;;;;;140.73;76.82;;;;;;;2.35;73.19;102017.34;5033191;28;20056;-69
2021/01/20 00:19:43;;;;;;;142.55;76.03;;;;;;;2.35;73.13;102025.13;5033070;28;20042;-69
2021/01/20 00:22:11;;;;;;;136.90;73.25;;;;;;;2.35;72.97;102032.00;5033435;28;20053;-69
2021/01/20 00:24:37;;;;;;;142.77;75.50;;;;;;;2.35;72.73;102024.25;5032017;28;20049;-69
2021/01/20 00:27:05;;;;;;;135.50;75.03;;;;;;;2.32;72.74;102019.94;5033205;28;20119;-69
2021/01/20 00:29:32;;;;;;;136.68;76.00;;;;;;;2.30;72.55;102016.50;5032792;28;20076;-70
2021/01/20 00:31:59;;;;;;;137.57;75.22;;;;;;;2.28;72.64;102024.25;5032278;28;20050;-69
2021/01/20 00:34:27;;;;;;;141.77;74.45;;;;;;;2.26;72.56;102036.34;5032910;28;20486;-69
2021/01/20 00:36:53;;;;;;;139.77;75.20;;;;;;;2.23;72.24;102028.56;5032662;28;20053;-69
2021/01/20 00:39:19;;;;;;;141.45;74.43;;;;;;;2.20;72.26;102036.34;5033073;28;20424;-70
2021/01/20 00:41:45;;;;;;;138.65;75.90;;;;;;;2.19;72.09;102034.63;5032621;28;20053;-69
2021/01/20 00:44:13;;;;;;;145.00;76.25;;;;;;;2.19;72.13;102023.41;5032910;28;20045;-69
2021/01/20 00:46:39;;;;;;;137.05;73.90;;;;;;;2.19;72.23;102013.06;5032571;28;20053;-69
2021/01/20 00:49:05;;;;;;;137.60;76.13;;;;;;;2.21;72.17;102026.84;5032715;28;20049;-69
2021/01/20 00:51:31;;;;;;;147.70;78.95;;;;;;;2.21;72.10;102035.50;5032492;28;20049;-69
2021/01/20 00:53:58;;;;;;;143.50;75.88;;;;;;;2.23;72.07;102032.91;5032636;28;20115;-70
2021/01/20 00:56:24;;;;;;;136.68;74.88;;;;;;;2.25;72.17;102026.00;5032944;28;20075;-69
2021/01/20 00:58:50;;;;;;;141.55;77.50;;;;;;;2.26;72.23;102014.75;5032279;28;20049;-69
2021/01/20 01:01:16;;;;;;;137.43;75.00;;;;;;;2.26;72.08;102000.09;5032559;28;20406;-69
2021/01/20 01:03:42;;;;;;;140.88;74.20;;;;;;;2.26;72.23;101992.31;5032304;28;20053;-69
2021/01/20 01:06:09;;;;;;;143.88;76.30;;;;;;;2.30;72.27;101995.78;5032269;28;20232;-69
2021/01/20 01:08:35;;;;;;;141.02;75.85;;;;;;;2.30;72.20;102006.13;5032190;28;20079;-69
2021/01/20 01:11:03;;;;;;;144.63;78.32;;;;;;;2.31;72.25;102012.16;5032442;28;20046;-70
2021/01/20 01:13:29;;;;;;;146.23;78.05;;;;;;;2.31;72.37;102007.00;5032112;28;20516;-69
2021/01/20 01:15:57;;;;;;;143.63;75.90;;;;;;;2.31;72.25;102007.00;5032133;28;20054;-69
2021/01/20 01:18:23;;;;;;;144.32;78.20;;;;;;;2.33;72.61;102010.44;5032222;28;20048;-69
2021/01/20 01:20:50;;;;;;;144.00;77.57;;;;;;;2.33;72.49;102006.13;5032198;28;20049;-69
2021/01/20 01:23:16;;;;;;;141.10;76.78;;;;;;;2.34;72.63;102014.78;5032160;28;20045;-69
2021/01/20 01:25:42;;;;;;;140.98;76.32;;;;;;;2.35;72.69;102016.47;5032048;28;20069;-69
2021/01/20 01:28:15;;;;;;;140.30;75.28;;;;;;;2.36;72.77;102015.59;5032326;28;20046;-69
2021/01/20 01:30:41;;;;;;;141.77;77.05;;;;;;;2.37;72.64;102009.56;5032282;28;20045;-69
2021/01/20 01:33:08;;;;;;;140.48;74.88;;;;;;;2.36;72.77;101982.81;5031905;28;20049;-69
2021/01/20 01:35:34;;;;;;;138.13;73.20;;;;;;;2.37;72.73;101988.84;5031689;28;20037;-69
2021/01/20 01:38:01;;;;;;;143.30;76.85;;;;;;;2.39;72.79;101984.53;5030895;28;20049;-69
2021/01/20 01:40:27;;;;;;;139.93;76.35;;;;;;;2.39;73.00;101981.94;5032158;28;20443;-69
2021/01/20 01:42:53;;;;;;;144.73;75.47;;;;;;;2.40;72.76;101976.75;5031907;28;20046;-69
2021/01/20 01:45:20;;;;;;;143.85;76.78;;;;;;;2.41;72.91;101975.00;5032004;28;20048;-69
2021/01/20 01:47:46;;;;;;;138.73;74.88;;;;;;;2.42;73.31;101974.16;5032058;28;20061;-69
2021/01/20 01:50:12;;;;;;;135.35;73.72;;;;;;;2.44;73.12;101990.56;5031884;28;20046;-69
2021/01/20 01:52:40;;;;;;;145.63;75.72;;;;;;;2.41;73.00;102022.53;5031642;28;20048;-69
2021/01/20 01:55:07;;;;;;;146.18;74.97;;;;;;;2.39;73.07;102024.25;5031825;28;20053;-69
2021/01/20 01:57:37;;;;;;;142.48;76.18;;;;;;;2.36;73.09;102026.84;5031827;28;20045;-69
2021/01/20 02:00:05;;;;;;;145.18;75.13;;;;;;;2.37;73.42;102022.53;5031669;28;20060;-69
2021/01/20 02:02:33;;;;;;;142.07;74.10;;;;;;;2.35;73.38;102026.84;5031701;28;20046;-69
2021/01/20 02:05:00;;;;;;;141.07;76.00;;;;;;;2.37;73.40;102009.56;5031915;28;20136;-69
2021/01/20 02:07:28;;;;;;;137.43;68.78;;;;;;;2.37;73.33;102014.75;5031241;28;20414;-69
2021/01/20 02:09:57;;;;;;;135.77;70.30;;;;;;;2.31;73.03;102014.75;5031476;28;20050;-69
2021/01/20 02:12:42;;;;;;;128.52;69.05;;;;;;;2.27;73.50;102019.06;5031870;28;20643;-69
2021/01/20 02:15:12;;;;;;;132.18;70.18;;;;;;;2.25;73.49;102007.88;5031535;28;20486;-69
2021/01/20 02:17:56;;;;;;;124.22;67.85;;;;;;;2.26;73.57;101997.50;5031555;28;20052;-69
2021/01/20 02:21:00;;;;;;;130.00;68.25;;;;;;;2.28;73.67;102003.53;5031707;28;20056;-69
2021/01/20 02:23:27;;;;;;;125.63;67.43;;;;;;;2.27;73.70;102009.59;5031762;28;20053;-69
2021/01/20 02:26:10;;;;;;;123.40;67.45;;;;;;;2.27;73.78;102017.38;5031672;28;20056;-69
2021/01/20 02:28:50;;;;;;;128.27;66.55;;;;;;;2.29;73.74;102020.78;5031727;28;20051;-69
2021/01/20 02:31:17;;;;;;;127.55;66.78;;;;;;;2.31;73.82;102023.41;5031582;28;20053;-70
2021/01/20 02:33:46;;;;;;;131.63;71.10;;;;;;;2.34;73.71;102020.81;5031330;28;20048;-69
2021/01/20 02:36:15;;;;;;;129.50;68.85;;;;;;;2.33;73.67;102011.28;5031379;28;20053;-69
2021/01/20 02:38:44;;;;;;;130.52;70.00;;;;;;;2.36;73.88;102000.06;5031391;28;20076;-69
2021/01/20 02:41:22;;;;;;;131.48;72.18;;;;;;;2.37;73.90;102005.25;5063597;28;20057;-69
2021/01/20 02:43:48;;;;;;;126.38;68.80;;;;;;;2.39;73.90;102000.09;5031403;28;20049;-70
2021/01/20 02:46:14;;;;;;;123.35;67.70;;;;;;;2.39;73.79;101995.75;5031570;28;20045;-69
2021/01/20 02:48:40;;;;;;;123.13;66.43;;;;;;;2.37;73.83;101989.69;5034627;28;20091;-69
2021/01/20 02:51:09;;;;;;;129.85;71.25;;;;;;;2.37;73.83;101987.09;5034904;28;20057;-69
2021/01/20 02:53:37;;;;;;;118.68;65.60;;;;;;;2.37;73.94;101974.16;5034675;28;20077;-69
2021/01/20 02:56:06;;;;;;;125.43;68.60;;;;;;;2.38;74.04;101981.06;5034863;28;20133;-69
2021/01/20 02:58:35;;;;;;;125.22;68.40;;;;;;;2.40;74.11;101978.47;5034582;28;20045;-69
2021/01/20 03:01:04;;;;;;;125.82;70.07;;;;;;;2.41;73.96;101970.72;5034798;28;20046;-68
2021/01/20 03:03:31;;;;;;;135.68;70.93;;;;;;;2.43;74.05;101958.59;5034600;28;20060;-68
2021/01/20 03:05:58;;;;;;;126.57;67.93;;;;;;;2.42;74.06;101956.88;5034804;28;20375;-68
2021/01/20 03:08:26;;;;;;;131.50;69.38;;;;;;;2.45;74.14;101962.06;5034595;28;20049;-68
2021/01/20 03:10:53;;;;;;;129.00;69.25;;;;;;;2.45;74.18;101938.75;5034309;28;20061;-68
2021/01/20 03:13:21;;;;;;;132.55;70.13;;;;;;;2.47;74.16;101919.75;5034629;28;20052;-69
2021/01/20 03:15:50;;;;;;;130.45;71.45;;;;;;;2.46;74.18;101908.50;5034103;28;20088;-68
2021/01/20 03:18:16;;;;;;;131.02;70.32;;;;;;;2.48;74.11;101927.50;5034375;28;20402;-68
2021/01/20 03:20:42;;;;;;;137.13;72.68;;;;;;;2.50;74.10;101935.25;5034252;28;20050;-70
2021/01/20 03:23:08;;;;;;;135.82;73.45;;;;;;;2.49;74.05;101947.38;5034152;28;20042;-69
2021/01/20 03:25:34;;;;;;;142.60;73.30;;;;;;;2.49;74.07;101962.91;5034236;28;20046;-69
2021/01/20 03:28:01;;;;;;;139.88;73.57;;;;;;;2.50;74.03;101976.72;5034345;28;20405;-69
2021/01/20 03:30:27;;;;;;;141.25;75.10;;;;;;;2.49;74.08;101977.56;5034365;28;20046;-69
2021/01/20 03:32:53;;;;;;;139.82;74.57;;;;;;;2.50;74.08;101963.75;5034076;28;20050;-69
2021/01/20 03:35:19;;;;;;;142.63;75.78;;;;;;;2.49;73.92;101957.72;5034056;28;20045;-69
2021/01/20 03:37:45;;;;;;;145.18;74.40;;;;;;;2.49;74.04;101960.31;5033658;28;20053;-69
2021/01/20 03:40:12;;;;;;;149.85;76.38;;;;;;;2.49;74.02;101970.69;5033880;28;20049;-69
2021/01/20 03:42:38;;;;;;;135.48;72.40;;;;;;;2.50;74.10;101964.66;5034130;28;20045;-69
2021/01/20 03:45:05;;;;;;;135.10;74.03;;;;;;;2.52;73.92;101959.44;5034155;28;20052;-69
2021/01/20 03:47:37;;;;;;;140.48;74.93;;;;;;;2.52;73.95;101964.63;5033792;28;20048;-69
2021/01/20 03:50:06;;;;;;;133.38;70.90;;;;;;;2.52;73.94;101962.88;5033621;28;20050;-69
2021/01/20 03:52:33;;;;;;;133.95;72.38;;;;;;;2.54;74.09;101963.75;5033541;28;20049;-69
2021/01/20 03:54:59;;;;;;;141.27;76.10;;;;;;;2.53;74.04;101954.25;5033731;28;20050;-69
2021/01/20 03:57:25;;;;;;;142.55;76.10;;;;;;;2.55;73.90;101943.88;5033716;28;20057;-69
2021/01/20 03:59:52;;;;;;;145.80;75.32;;;;;;;2.56;74.09;101935.25;5034099;28;20056;-69
2021/01/20 04:02:18;;;;;;;142.60;76.97;;;;;;;2.55;74.16;101921.44;5032038;28;20048;-69
2021/01/20 04:04:44;;;;;;;142.50;74.63;;;;;;;2.56;74.01;101919.69;5029525;28;20502;-69
2021/01/20 04:07:11;;;;;;;140.68;73.78;;;;;;;2.56;74.11;101922.28;5029976;28;20172;-69
2021/01/20 04:09:37;;;;;;;147.75;78.80;;;;;;;2.57;73.91;101924.88;5029910;28;20053;-69
2021/01/20 04:12:03;;;;;;;137.02;75.22;;;;;;;2.57;74.19;101913.66;5030199;28;20042;-69
2021/01/20 04:14:30;;;;;;;140.38;75.57;;;;;;;2.57;74.01;101914.50;5029919;28;20494;-69
2021/01/20 04:16:56;;;;;;;141.02;76.72;;;;;;;2.58;73.81;101923.16;5029747;28;20064;-69
2021/01/20 04:19:22;;;;;;;139.38;76.20;;;;;;;2.58;73.88;101928.34;5029765;28;20057;-69
2021/01/20 04:21:49;;;;;;;141.80;75.55;;;;;;;2.58;73.94;101918.81;5030122;28;20041;-69
2021/01/20 04:24:16;;;;;;;133.95;74.70;;;;;;;2.59;73.81;101925.72;5029880;28;20509;-69
2021/01/20 04:26:45;;;;;;;131.45;73.13;;;;;;;2.59;73.68;101922.25;5029856;28;20037;-69
2021/01/20 04:29:12;;;;;;;141.27;73.75;;;;;;;2.59;73.68;101920.56;5030136;28;20056;-70
2021/01/20 04:31:39;;;;;;;137.38;76.00;;;;;;;2.59;73.62;101911.91;5029793;28;20406;-70
2021/01/20 04:34:06;;;;;;;132.18;72.38;;;;;;;2.61;73.54;101917.94;5029533;28;20095;-70
2021/01/20 04:36:32;;;;;;;134.05;75.57;;;;;;;2.58;73.58;101910.19;5029158;28;20046;-70
2021/01/20 04:38:59;;;;;;;132.20;75.00;;;;;;;2.58;73.64;101916.22;5029509;28;20052;-70
2021/01/20 04:41:27;;;;;;;131.18;72.70;;;;;;;2.60;73.67;101913.63;5029506;28;20056;-69
2021/01/20 04:43:53;;;;;;;134.35;72.85;;;;;;;2.61;73.58;101920.53;5029661;28;20163;-69
2021/01/20 04:46:19;;;;;;;134.18;73.03;;;;;;;2.61;73.40;101934.34;5029543;28;20056;-69
2021/01/20 04:48:49;;;;;;;137.40;76.63;;;;;;;2.62;73.42;101935.22;5029207;28;20095;-69
2021/01/20 04:51:19;;;;;;;132.57;73.05;;;;;;;2.62;73.38;101940.41;5029247;28;20041;-69
2021/01/20 04:53:45;;;;;;;129.45;73.22;;;;;;;2.63;73.49;101941.25;5028987;28;20052;-69
2021/01/20 04:56:13;;;;;;;133.18;75.13;;;;;;;2.65;73.28;101942.13;5029373;28;20046;-70
2021/01/20 04:58:39;;;;;;;133.80;73.65;;;;;;;2.64;73.23;101941.28;5029082;28;20061;-69
2021/01/20 05:01:05;;;;;;;133.23;74.15;;;;;;;2.65;73.17;101945.56;5029126;28;20057;-69
2021/01/20 05:03:32;;;;;;;134.52;72.75;;;;;;;2.64;73.18;101951.63;5029006;28;20406;-70
2021/01/20 05:05:59;;;;;;;127.53;71.22;;;;;;;2.66;73.17;101955.06;5029097;28;20049;-69
2021/01/20 05:08:25;;;;;;;132.27;72.40;;;;;;;2.66;73.28;101956.81;5029294;28;20049;-69
2021/01/20 05:10:52;;;;;;;124.20;71.10;;;;;;;2.66;73.09;101952.47;5028192;28;20049;-69
2021/01/20 05:13:26;;;;;;;126.43;72.22;;;;;;;2.67;73.19;101950.75;5029055;28;20494;-69
2021/01/20 05:15:52;;;;;;;121.97;69.93;;;;;;;2.66;73.45;101962.84;5028845;28;20064;-70
2021/01/20 05:18:19;;;;;;;124.15;68.97;;;;;;;2.67;73.27;101954.22;5028836;28;20037;-69
2021/01/20 05:20:46;;;;;;;122.00;72.00;;;;;;;2.68;73.17;101955.94;5029025;28;20080;-69
2021/01/20 05:23:12;;;;;;;124.35;69.95;;;;;;;2.68;72.98;101952.47;5029101;28;20041;-69
2021/01/20 05:25:49;;;;;;;128.07;71.18;;;;;;;2.68;73.05;101961.13;5028694;28;20050;-69
2021/01/20 05:28:22;;;;;;;130.60;71.80;;;;;;;2.70;73.08;101964.53;5028908;28;20042;-69
2021/01/20 05:30:59;;;;;;;122.63;71.13;;;;;;;2.70;72.94;101961.09;5028587;28;20054;-69
2021/01/20 05:33:33;;;;;;;126.78;71.50;;;;;;;2.70;72.84;101964.53;5028573;28;20045;-69
2021/01/20 05:36:08;;;;;;;125.80;69.10;;;;;;;2.70;72.85;101968.88;5028706;28;20045;-69
2021/01/20 05:38:45;;;;;;;121.00;66.82;;;;;;;2.71;72.64;101973.19;5028543;28;20049;-69
2021/01/20 05:41:29;;;;;;;125.32;70.57;;;;;;;2.71;72.67;101973.19;5029216;28;20053;-69
2021/01/20 05:44:13;;;;;;;125.00;72.57;;;;;;;2.71;72.83;101979.22;5028673;28;20057;-69
2021/01/20 05:46:42;;;;;;;129.00;69.78;;;;;;;2.71;72.86;101975.78;5027836;28;20041;-69
2021/01/20 05:49:21;;;;;;;124.47;70.18;;;;;;;2.71;73.16;101966.28;5028728;28;20042;-69
2021/01/20 05:51:47;;;;;;;122.93;70.32;;;;;;;2.71;73.04;101966.28;5037607;28;20565;-69
2021/01/20 05:54:14;;;;;;;123.32;69.18;;;;;;;2.72;73.02;101968.00;5028717;28;20095;-70
2021/01/20 05:56:40;;;;;;;121.63;67.85;;;;;;;2.72;73.15;101969.75;5031957;28;20071;-67
2021/01/20 05:59:12;;;;;;;130.63;72.00;;;;;;;2.73;73.15;101966.25;5037638;28;20049;-68
2021/01/20 06:01:38;;;;;;;123.80;72.90;;;;;;;2.74;73.16;101968.88;5027991;28;20494;-68
2021/01/20 06:04:05;;;;;;;123.47;69.55;;;;;;;2.73;73.26;101958.47;5028236;28;20049;-68
2021/01/20 06:06:32;;;;;;;118.88;69.30;;;;;;;2.75;73.21;101969.72;5028222;28;20049;-68
2021/01/20 06:09:00;;;;;;;122.38;68.55;;;;;;;2.76;73.20;101969.72;5028162;28;20053;-68
2021/01/20 06:11:26;;;;;;;126.45;72.68;;;;;;;2.76;73.31;101966.25;5028643;28;20053;-70
2021/01/20 06:13:53;;;;;;;129.75;73.85;;;;;;;2.76;73.37;101972.31;5028241;28;20049;-69
2021/01/20 06:16:28;;;;;;;122.55;68.68;;;;;;;2.77;73.38;101974.03;5030062;28;20049;-64
2021/01/20 06:19:00;;;;;;;;;;;;;;;2.78;73.31;101973.16;5037483;28;20052;-67
2021/01/20 06:21:27;;;;;;;128.02;72.85;;;;;;;2.81;73.20;101974.03;5029587;28;19929;-67
2021/01/20 06:23:58;;;;;;;140.02;75.50;;;;;;;2.81;73.21;101963.66;5031895;28;20049;-69
2021/01/20 06:26:25;;;;;;;136.88;73.30;;;;;;;2.82;73.26;101975.72;5031840;28;20044;-70
2021/01/20 06:28:56;;;;;;;134.32;74.00;;;;;;;2.82;73.13;101965.38;5032047;28;20414;-70
2021/01/20 06:31:25;;;;;;;124.10;69.95;;;;;;;2.83;73.09;101974.88;5031865;28;20049;-69
2021/01/20 06:33:52;;;;;;;123.35;71.38;;;;;;;2.82;73.30;101979.22;5030531;28;20057;-69
2021/01/20 06:36:31;;;;;;;118.30;69.72;;;;;;;2.83;73.31;101982.66;5031444;28;20406;-69
2021/01/20 06:38:58;;;;;;;116.57;66.95;;;;;;;2.83;73.24;101980.06;5031535;28;20057;-69
2021/01/20 06:41:40;;;;;;;121.25;68.78;;;;;;;2.85;73.18;101973.16;5031620;28;20049;-69
2021/01/20 06:44:08;;;;;;;116.55;65.78;;;;;;;2.85;73.13;101983.50;5031414;28;20045;-70
2021/01/20 06:46:35;;;;;;;122.65;67.47;;;;;;;2.86;73.20;101982.66;5031239;28;20045;-70
2021/01/20 06:49:01;;;;;;;119.38;66.85;;;;;;;2.85;73.22;101992.13;5031797;28;20095;-68
2021/01/20 06:51:29;;;;;;;82.55;44.92;;;;;;;2.98;73.79;101992.09;5031612;28;20395;-64
2021/01/20 06:54:13;;;;;;;127.35;71.28;;;;;;;3.23;75.38;101990.22;5030626;28;20056;-68
2021/01/20 06:56:42;;;;;;;121.63;68.68;;;;;;;3.19;74.74;101994.56;5039709;28;20048;-67
2021/01/20 06:59:27;;;;;;;227.55;98.60;;;;;;;3.14;74.44;101988.56;5042320;28;20057;-68
2021/01/20 07:02:02;;;;;;;218.70;96.10;;;;;;;3.10;74.21;101990.28;5045633;28;20051;-68
2021/01/20 07:04:38;;;;;;;148.18;76.47;;;;;;;3.07;74.17;101992.03;5021911;28;20366;-67
2021/01/20 07:07:10;;;;;;;133.73;71.47;;;;;;;3.03;73.89;101991.19;5030659;28;20132;-67
2021/01/20 07:09:48;;;;;;;128.18;71.30;;;;;;;3.02;73.90;102002.44;5030683;28;20396;-67
2021/01/20 07:12:21;;;;;;;155.90;77.60;;;;;;;2.99;73.71;101999.84;5030886;28;20509;-67
2021/01/20 07:14:55;;;;;;;187.80;88.82;;;;;;;2.98;73.85;102016.28;5030498;28;20061;-67
2021/01/20 07:17:22;;;;;;;125.40;71.10;;;;;;;2.98;73.75;102020.63;5039724;28;20797;-67
2021/01/20 07:19:50;;;;;;;119.97;68.78;;;;;;;2.98;73.73;102023.22;5040295;28;20049;-67
2021/01/20 07:22:17;;;;;;;129.95;68.45;;;;;;;2.97;73.74;102016.28;5040111;28;20048;-67
2021/01/20 07:24:44;;;;;;;116.82;68.32;;;;;;;2.97;73.67;102012.00;5042186;28;20045;-67
2021/01/20 07:27:11;;;;;;;119.53;66.95;;;;;;;2.97;73.38;102016.28;5045060;28;20642;-67
2021/01/20 07:29:41;;;;;;;120.25;67.13;;;;;;;2.98;73.68;102016.28;5044677;28;20068;-67
2021/01/20 07:32:08;;;;;;;119.65;68.63;;;;;;;2.99;73.76;102014.56;5045274;28;20095;-67
2021/01/20 07:34:36;;;;;;;119.93;69.40;;;;;;;2.98;73.76;102013.69;5045923;28;20052;-67
2021/01/20 07:37:07;;;;;;;125.15;69.60;;;;;;;3.00;73.66;102016.28;5039827;28;20120;-67
2021/01/20 07:39:33;;;;;;;127.05;71.53;;;;;;;3.01;73.54;102010.22;5044525;28;20095;-67
2021/01/20 07:41:59;;;;;;;130.05;73.38;;;;;;;3.01;73.53;102011.09;5043048;28;20049;-67
2021/01/20 07:44:26;;;;;;;117.32;68.20;;;;;;;3.02;73.64;102014.53;5038676;28;20060;-67
2021/01/20 07:47:00;;;;;;;119.03;69.35;;;;;;;3.03;73.63;102009.34;5029799;28;20057;-64
2021/01/20 07:49:27;;;;;;;120.38;68.63;;;;;;;3.15;74.20;102003.25;5028196;28;20075;-67
2021/01/20 07:52:09;;;;;;;121.90;70.55;;;;;;;3.16;73.91;102009.28;5030973;28;20465;-67
2021/01/20 07:54:38;;;;;;;126.65;70.43;;;;;;;3.15;73.60;102010.16;5039671;28;20068;-67
2021/01/20 07:57:09;;;;;;;115.78;68.40;;;;;;;3.14;73.61;102004.13;5041812;28;20510;-67
2021/01/20 07:59:35;;;;;;;131.85;71.97;;;;;;;3.15;73.62;102004.97;5038897;28;20045;-67
2021/01/20 08:02:31;;;;;;;119.20;69.70;;;;;;;3.15;73.67;102002.38;5041838;28;20041;-67
2021/01/20 08:05:02;;;;;;;123.68;70.22;;;;;;;3.14;73.65;101998.94;5027160;28;20049;-67
2021/01/20 08:07:28;;;;;;;119.63;68.13;;;;;;;3.15;73.67;101995.47;5034265;28;20084;-67
2021/01/20 08:09:54;;;;;;;121.55;68.30;;;;;;;3.16;73.63;102004.09;5038547;28;20061;-67
2021/01/20 08:12:29;;;;;;;119.32;69.00;;;;;;;3.17;73.58;102009.28;5041233;28;20051;-67
2021/01/20 08:14:57;;;;;;;112.53;64.13;;;;;;;3.17;73.56;102009.28;5043580;28;21173;-66
2021/01/20 08:17:24;;;;;;;109.50;62.45;;;;;;;3.19;73.61;102023.09;5040824;28;20052;-67
2021/01/20 08:19:54;;;;;;;113.75;63.75;;;;;;;3.21;73.46;102028.28;5036682;28;20458;-67
2021/01/20 08:22:20;;;;;;;111.05;63.90;;;;;;;3.22;73.49;102027.41;5045919;28;20041;-67
2021/01/20 08:24:48;;;;;;;110.10;63.42;;;;;;;3.22;73.45;102033.44;5041087;28;20049;-67
2021/01/20 08:27:23;;;;;;;110.32;63.35;;;;;;;3.24;73.38;102038.66;5039138;28;20049;-67
2021/01/20 08:29:51;;;;;;;111.53;64.93;;;;;;;3.27;73.33;102030.84;5029052;28;20049;-67
2021/01/20 08:32:17;;;;;;;119.85;69.40;;;;;;;3.30;73.28;102038.63;5034844;28;20448;-67
2021/01/20 08:34:45;;;;;;;123.40;67.53;;;;;;;3.31;73.47;102040.31;5031937;28;20057;-67
2021/01/20 08:37:17;;;;;;;126.55;70.80;;;;;;;3.31;73.47;102042.91;5028942;28;20108;-66
2021/01/20 08:39:55;;;;;;;127.43;70.25;;;;;;;3.33;73.64;102040.34;5036699;28;20120;-66
2021/01/20 08:42:36;;;;;;;127.18;68.40;;;;;;;3.36;73.67;102040.31;5040321;28;20100;-65
2021/01/20 08:45:13;;;;;;;125.82;68.65;;;;;;;3.46;74.58;102049.75;5031379;28;20041;-66
2021/01/20 08:47:46;;;;;;;118.53;66.28;;;;;;;3.48;74.15;102039.38;5028307;28;20042;-66
2021/01/20 08:50:29;;;;;;;121.22;68.15;;;;;;;3.48;73.97;102048.03;5028359;28;20465;-66
2021/01/20 08:52:58;;;;;;;119.15;68.15;;;;;;;3.51;73.93;102047.16;5028325;28;20051;-67
2021/01/20 08:55:24;;;;;;;123.22;73.15;;;;;;;3.55;73.83;102052.28;5028483;28;20053;-67
2021/01/20 08:58:27;;;;;;;123.40;70.43;;;;;;;3.58;74.03;102054.00;5028549;28;20056;-67
2021/01/20 09:01:04;;;;;;;134.02;77.40;;;;;;;3.59;73.94;102064.41;5028744;28;20045;-66
2021/01/20 09:03:36;;;;;;;128.27;73.72;;;;;;;3.59;74.12;102056.63;5022858;28;20049;-66
2021/01/20 09:06:14;;;;;;;132.45;76.72;;;;;;;3.65;74.10;102049.66;5028422;28;20053;-67
2021/01/20 09:08:40;;;;;;;133.98;77.65;;;;;;;3.69;74.19;102039.22;5021554;28;20056;-66
2021/01/20 09:11:06;;;;;;;140.65;77.60;;;;;;;3.73;74.33;102037.47;5026588;28;20056;-66
2021/01/20 09:13:32;;;;;;;133.77;77.70;;;;;;;3.76;74.57;102034.88;5028491;28;20052;-67
2021/01/20 09:15:58;;;;;;;129.27;75.38;;;;;;;3.77;74.59;102046.97;5026389;28;20390;-66
2021/01/20 09:18:25;;;;;;;133.50;79.00;;;;;;;3.80;74.59;102051.28;5028723;28;20139;-67
2021/01/20 09:20:52;;;;;;;130.43;76.32;;;;;;;3.81;74.34;102047.81;5028052;28;20570;-67
2021/01/20 09:23:19;;;;;;;127.57;72.82;;;;;;;3.82;74.32;102036.56;5028778;28;20041;-67
2021/01/20 09:25:46;;;;;;;130.35;74.53;;;;;;;3.83;74.43;102036.53;5028620;28;20095;-67
2021/01/20 09:28:13;;;;;;;121.68;71.97;;;;;;;3.86;74.24;102041.72;5028609;28;20037;-67
2021/01/20 09:30:39;;;;;;;125.75;73.28;;;;;;;3.87;73.93;102032.19;5028281;28;20042;-67
2021/01/20 09:33:05;;;;;;;128.93;76.10;;;;;;;3.89;73.93;102025.25;5028442;28;20049;-66
2021/01/20 09:35:32;;;;;;;124.32;72.00;;;;;;;3.91;73.87;102026.09;5028215;28;20461;-67
2021/01/20 09:37:59;;;;;;;135.50;75.28;;;;;;;3.93;73.79;102025.19;5028868;28;20050;-65
2021/01/20 09:40:27;;;;;;;128.95;72.95;;;;;;;3.97;73.82;102014.81;5028250;28;20049;-67
2021/01/20 09:42:54;;;;;;;129.15;74.10;;;;;;;4.01;73.80;102011.28;5028720;28;20045;-67
2021/01/20 09:45:27;;;;;;;132.00;75.90;;;;;;;4.04;73.77;102006.09;5028033;28;20045;-66
2021/01/20 09:47:55;;;;;;;125.40;74.75;;;;;;;4.04;74.01;101999.16;5028722;28;20108;-67
2021/01/20 09:50:22;;;;;;;133.32;77.88;;;;;;;4.06;73.83;102005.19;5028193;28;20038;-67
2021/01/20 09:52:49;;;;;;;128.52;76.70;;;;;;;4.11;73.88;102009.47;5028196;28;20045;-67
2021/01/20 09:55:15;;;;;;;129.32;75.18;;;;;;;4.14;73.74;102020.72;5027981;28;20501;-67
2021/01/20 09:57:42;;;;;;;124.07;71.50;;;;;;;4.09;73.82;102014.69;5031852;28;20041;-66
2021/01/20 10:00:09;;;;;;;142.82;82.57;;;;;;;4.07;73.79;102009.50;5032170;28;20162;-67
2021/01/20 10:02:38;;;;;;;131.15;78.82;;;;;;;4.06;73.94;101997.41;5032091;28;20458;-66
2021/01/20 10:05:06;;;;;;;128.02;76.03;;;;;;;4.06;74.09;102004.31;5032258;28;20148;-67
2021/01/20 10:07:33;;;;;;;132.23;77.63;;;;;;;4.04;74.00;101998.28;5031784;28;20053;-66
2021/01/20 10:09:59;;;;;;;132.07;77.57;;;;;;;4.07;73.91;101993.06;5031697;28;20387;-66
2021/01/20 10:12:25;;;;;;;132.25;75.25;;;;;;;4.07;73.94;102006.91;5032145;28;20071;-66
2021/01/20 10:14:55;;;;;;;133.35;78.75;;;;;;;4.08;73.94;102011.22;5032064;28;20136;-67
2021/01/20 10:17:21;;;;;;;147.93;90.53;;;;;;;4.08;73.97;102016.41;5031956;28;20525;-66
2021/01/20 10:19:48;;;;;;;146.63;83.72;;;;;;;4.06;74.19;102013.00;5032026;28;20498;-67
2021/01/20 10:22:14;;;;;;;142.18;83.30;;;;;;;4.03;74.26;102012.16;5031493;28;20041;-66
2021/01/20 10:24:40;;;;;;;148.50;86.13;;;;;;;4.01;74.40;102014.78;5031683;28;20080;-66
2021/01/20 10:27:06;;;;;;;165.80;93.95;;;;;;;4.00;74.70;102014.75;5031783;28;20049;-67
2021/01/20 10:29:32;;;;;;;174.85;103.20;;;;;;;3.98;74.88;102019.97;5031413;28;20049;-66
2021/01/20 10:32:00;;;;;;;222.27;125.05;;;;;;;3.97;75.00;102018.25;5031729;28;20045;-67
2021/01/20 10:34:29;;;;;;;158.55;93.38;;;;;;;3.92;74.87;102022.63;5031417;28;20498;-67
2021/01/20 10:36:56;;;;;;;162.13;91.03;;;;;;;3.88;74.73;102039.94;5031175;28;20440;-66
2021/01/20 10:39:22;;;;;;;180.50;99.97;;;;;;;3.78;74.92;102046.09;5041095;28;20627;-67
2021/01/20 10:41:49;;;;;;;180.57;104.60;;;;;;;3.70;75.20;102046.16;5040180;28;20041;-66
2021/01/20 10:44:15;;;;;;;144.10;80.60;;;;;;;3.70;75.60;102050.50;5048183;28;20059;-67
2021/01/20 10:46:41;;;;;;;147.27;83.85;;;;;;;3.73;75.98;102040.94;5034496;28;20048;-67
2021/01/20 10:49:08;;;;;;;151.20;90.72;;;;;;;3.71;75.74;102036.66;5031203;28;20099;-69
2021/01/20 10:51:34;;;;;;;172.55;99.25;;;;;;;3.68;75.81;102036.66;5030285;28;20456;-68
2021/01/20 10:54:02;;;;;;;124.10;74.40;;;;;;;3.63;75.96;102035.81;5031395;28;20067;-68
2021/01/20 10:56:28;;;;;;;135.07;76.72;;;;;;;3.60;76.06;102034.09;5030099;28;20060;-66
2021/01/20 10:58:55;;;;;;;118.72;68.43;;;;;;;3.61;76.33;102025.47;5028182;28;20079;-68
2021/01/20 11:01:22;;;;;;;121.90;72.20;;;;;;;3.63;76.28;102020.25;5030152;28;20050;-68
2021/01/20 11:03:48;;;;;;;120.68;68.13;;;;;;;3.63;76.25;102022.84;5043253;28;20053;-68
2021/01/20 11:06:15;;;;;;;157.30;98.30;;;;;;;3.62;76.22;102026.31;5046065;28;20052;-68
2021/01/20 11:08:42;;;;;;;151.63;96.20;;;;;;;3.60;76.32;102026.31;5044814;28;20052;-68
2021/01/20 11:11:10;;;;;;;112.40;66.95;;;;;;;3.59;76.40;102020.28;5043670;28;20588;-67
2021/01/20 11:13:36;;;;;;;121.85;70.35;;;;;;;3.61;76.45;101996.91;5043977;28;20048;-68
2021/01/20 11:16:02;;;;;;;127.05;74.13;;;;;;;3.64;76.43;101996.88;5041216;28;20505;-69